Red Rock Balloon Festival 5k and 10k 2018
Skip Navigation Links
Results
Leaderboard
Details
07 07 2018
HyperLink
Page 1 of 3 (144 items)
[1]23
Pos
Race No
Fav
Share
Video
Name
Time
Category
Cat Pos
Age
Gender
Gen Pos
City
Dist
Pace *
Finish
87251Jean Etten00:31:56.340+ Masters1161Female42Pella3.10710:16 min/m00:31:56.3
88147Evan Thomassen00:32:19.613-161214Male46Pella3.10710:24 min/m00:32:19.6
89255April Olson00:32:31.612 & under41Female43Pella3.10710:28 min/m00:32:31.6
9058Leslie Johnston00:32:42.840+ Masters1241Female44Knoxville3.10710:31 min/m00:32:42.8
91288Tessa Breems00:32:57.513-161214Female45 3.10710:36 min/m00:32:57.5
9265Melinda Maierhoffer00:33:30.040+ Masters1343Female46Jefferson City3.10710:46 min/m00:33:30.0
93265Tara Kohlags00:33:53.930-39739Female47Pella3.10710:54 min/m00:33:53.9
9432Sandy Quick00:34:15.040+ Masters1456Female48Pleasant Hill3.10711:01 min/m00:34:15.0
9557Erik Jensen00:34:25.312 & under412Male47Pella3.10711:04 min/m00:34:25.3
9655Angie Jensen00:34:31.840+ Masters1544Female49Indianola3.10711:06 min/m00:34:31.8
97295Leslie Cox Schveimer00:34:45.840+ Masters1647Female50 3.10711:11 min/m00:34:45.8
98296Brooke Schreimer00:34:46.113-161315Female51 3.10711:11 min/m00:34:46.1
10048Hallie Amos00:35:01.813-161416Female53Pella3.10711:16 min/m00:35:01.8
991Bethany Amos00:35:00.820-29720Female52Ottumwa3.10711:16 min/m00:35:00.8
10114Julie Foster00:35:17.540+ Masters1748Female54Grinnell3.10711:21 min/m00:35:17.5
102260Claire Fay00:35:49.513-161516Female55Pella3.10711:31 min/m00:35:49.5
103262Anna McDonald00:35:49.613-161616Female56Pella3.10711:31 min/m00:35:49.6
10524Karsen Miller00:36:08.620-29822Female58Pella3.10711:37 min/m00:36:08.6
10464Lyndsi Laughlin00:36:08.230-39835Female57Pella3.10711:37 min/m00:36:08.2
106146Brooke Thomassen00:36:09.820-29921Female59Pella3.10711:38 min/m00:36:09.8
108266Darcy Horstman00:36:16.340+ Masters1852Female60Pella3.10711:40 min/m00:36:16.3
107267Greg Horstman00:36:16.340+ Masters1353Male48Pella3.10711:40 min/m00:36:16.3
109190Matthew Kissinger00:36:57.220-29823Male49Pella3.10711:53 min/m00:36:57.2
110191Caroline Kissinger00:36:57.520-291021Female61Pella3.10711:53 min/m00:36:57.5
1117Jackson Bogle00:37:22.912 & under510Male50Altoona3.10712:01 min/m00:37:22.9
112290Marsha Wetter00:37:47.140+ Masters1957Female62 3.10712:09 min/m00:37:47.1
11347Scott Amos00:38:32.540+ Masters1449Male51Ottumwa3.10712:24 min/m00:38:32.5
114131Melinda Davids00:40:09.530-39935Female63Pella3.10712:55 min/m00:40:09.5
11534Megan Quick00:40:15.020-291125Female64Kansas City3.10712:57 min/m00:40:15.0
11680Avary Hunsinger00:40:39.012 & under510Female65Pella3.10713:05 min/m00:40:39.0
117289Andy Hunsigner00:40:39.240+ Masters1549Male52 3.10713:05 min/m00:40:39.2
1186Glynn Bogle00:42:45.730-391039Female66Altoona3.10713:45 min/m00:42:45.7
119138Jenny Macken00:43:06.240+ Masters2042Female67Pella3.10713:52 min/m00:43:06.2
12042Margaret Way00:44:10.620-291228Female68Norwalk3.10714:13 min/m00:44:10.6
121132Michelle Davids00:44:37.830-391137Female69Pella3.10714:21 min/m00:44:37.8
12211Pamela Crosser00:45:01.940+ Masters2150Female70Algona3.10714:29 min/m00:45:01.9
123258Sherry Cummings00:45:12.240+ Masters2256Female71Pella3.10714:32 min/m00:45:12.2
124259Carly Cummings00:45:12.320-291327Female72Pella3.10714:32 min/m00:45:12.3
12526Pamela Nimtz00:45:42.440+ Masters2352Female73Oskaloosa3.10714:42 min/m00:45:42.4
12649Dawn Amos00:46:21.240+ Masters2449Female74Pella3.10714:55 min/m00:46:21.2
127280Ceclia Masek00:47:10.213-161715Female75 3.10715:10 min/m00:47:10.2
128281Stephanie Masek00:47:10.613-161814Female76 3.10715:11 min/m00:47:10.6
129129Monica Curl00:50:22.330-391231Female77West Des Moines3.10716:12 min/m00:50:22.3
130252Steve Etten00:50:56.940+ Masters1661Male53Pella3.10716:23 min/m00:50:56.9
13184Mary Crouse00:51:18.140+ Masters2568Female78Pella3.10716:30 min/m00:51:18.1
13285Cheryl Crownover00:51:18.540+ Masters2664Female79Pella3.10716:30 min/m00:51:18.5
13362Debbie Kissinger00:52:17.940+ Masters2753Female80Knoxville3.10716:49 min/m00:52:17.9
13478Cadence Zeutenhorst00:54:04.313-161913Female81Pella3.10717:24 min/m00:54:04.3
13577Macey Zeutenhorst00:54:07.913-162016Female82Pella3.10717:25 min/m00:54:07.9
13653Patricia Duffield00:54:08.640+ Masters2863Female83Swan3.10717:25 min/m00:54:08.6
Page 1 of 3 (144 items)
[1]23
fb